Packwood, Iowa
Current Conditions -  °F | °C
As of 5:15 AM on Sunday 23 Nov 2014 (Local Time) from KFFL Reporting Station
NA  
Wind Chill: 52°   Ceiling: NA
Heat Index: 52°   Visibility: NA
Dew Point: 48°   Wind: 13mph
Humidity: 88%   Direction: 160°SSE
Pressure: 29.62"   Gusts: NA
Location:  41.13°N, 92.08°W
Report Text: KFFL 231115Z AUTO 16011KT 11/09 A2962 RMK AO2
Loading
Personal Weather Stations






























Interactive Weather Map New forecast layout! Learn more

10-Day Weather Forecast

Advertisements
Track Severe Weather on mobile